createdAt,value
2022-10-26T00:01:31.376Z,11.40
2022-10-26T00:03:59.807Z,9.98
2022-10-26T00:06:28.980Z,10.95
2022-10-26T00:08:57.674Z,11.00
2022-10-26T00:11:26.044Z,10.60
2022-10-26T00:13:54.383Z,11.43
2022-10-26T00:16:26.471Z,10.60
2022-10-26T00:18:54.883Z,10.52
2022-10-26T00:21:23.445Z,12.20
2022-10-26T00:23:51.733Z,12.35
2022-10-26T00:26:20.046Z,11.68
2022-10-26T00:28:49.110Z,12.38
2022-10-26T00:31:18.060Z,11.95
2022-10-26T00:33:46.541Z,11.98
2022-10-26T00:36:16.753Z,11.55
2022-10-26T00:38:53.340Z,11.48
2022-10-26T00:41:25.006Z,11.23
2022-10-26T00:43:54.457Z,11.90
2022-10-26T00:46:36.201Z,11.48
2022-10-26T00:51:52.346Z,11.55
2022-10-26T00:54:21.316Z,11.45
2022-10-26T00:56:51.967Z,11.25
2022-10-26T00:59:21.885Z,12.18
2022-10-26T01:01:51.615Z,12.03
2022-10-26T01:04:20.348Z,12.23
2022-10-26T01:06:49.840Z,13.10
2022-10-26T01:09:19.150Z,12.50
2022-10-26T01:11:53.868Z,12.23
2022-10-26T01:14:24.219Z,13.40
2022-10-26T01:17:37.483Z,11.57
2022-10-26T01:20:31.048Z,12.70
2022-10-26T01:23:05.361Z,11.77
2022-10-26T01:26:04.671Z,11.38
2022-10-26T01:29:03.669Z,10.80
2022-10-26T01:31:42.241Z,11.82
2022-10-26T01:34:22.455Z,12.63
2022-10-26T01:36:58.508Z,11.20
2022-10-26T01:39:39.281Z,11.35
2022-10-26T01:44:49.471Z,12.55
2022-10-26T01:47:20.881Z,13.07
2022-10-26T01:49:56.681Z,14.43
2022-10-26T01:52:25.477Z,13.63
2022-10-26T01:55:20.466Z,12.45
2022-10-26T01:57:51.923Z,12.50
2022-10-26T02:00:20.347Z,13.23
2022-10-26T02:03:02.294Z,13.50
2022-10-26T02:05:47.682Z,12.68
2022-10-26T02:08:37.710Z,12.32
2022-10-26T02:11:15.014Z,11.70
2022-10-26T02:14:16.161Z,12.52
2022-10-26T02:16:56.340Z,13.10
2022-10-26T02:19:36.951Z,11.95
2022-10-26T02:22:28.943Z,12.13
2022-10-26T02:25:01.418Z,12.07
2022-10-26T02:27:35.119Z,12.95
2022-10-26T02:30:05.525Z,13.10
2022-10-26T02:32:37.725Z,14.48
2022-10-26T02:35:06.566Z,13.88
2022-10-26T02:37:36.601Z,12.45
2022-10-26T02:40:11.965Z,12.65
2022-10-26T02:42:45.180Z,12.98
2022-10-26T02:45:18.602Z,11.63
2022-10-26T02:47:47.666Z,11.80
2022-10-26T02:50:19.440Z,13.90
2022-10-26T02:52:54.144Z,12.20
2022-10-26T02:55:35.325Z,14.02
2022-10-26T02:58:09.267Z,12.82
2022-10-26T03:00:38.397Z,12.05
2022-10-26T03:03:06.727Z,12.82
2022-10-26T03:05:36.914Z,11.25
2022-10-26T03:08:05.515Z,12.90
2022-10-26T03:10:38.079Z,13.52
2022-10-26T03:13:06.354Z,11.93
2022-10-26T03:15:34.690Z,12.48
2022-10-26T03:18:02.988Z,12.55
2022-10-26T03:20:32.023Z,12.45
2022-10-26T03:23:00.705Z,12.68
2022-10-26T03:25:29.176Z,12.38
2022-10-26T03:27:59.235Z,11.98
2022-10-26T03:30:28.303Z,12.07
2022-10-26T03:32:57.073Z,11.18
2022-10-26T03:35:25.532Z,11.23
2022-10-26T03:37:53.898Z,10.60
2022-10-26T03:40:22.154Z,13.00
2022-10-26T03:42:50.947Z,12.50
2022-10-26T03:45:19.569Z,11.82
2022-10-26T03:47:49.473Z,12.50
2022-10-26T03:50:20.848Z,13.57
2022-10-26T03:55:19.356Z,12.43
2022-10-26T03:57:47.794Z,12.77
2022-10-26T04:00:17.725Z,12.30
2022-10-26T04:02:53.719Z,12.85
2022-10-26T04:05:22.302Z,13.88
2022-10-26T04:07:58.321Z,15.05
2022-10-26T04:10:27.827Z,15.77
2022-10-26T04:12:56.514Z,15.27
2022-10-26T04:15:24.813Z,16.20
2022-10-26T04:17:58.542Z,15.70
2022-10-26T04:20:28.526Z,16.02
2022-10-26T04:23:05.225Z,15.25
2022-10-26T04:25:34.715Z,16.48
2022-10-26T04:28:05.343Z,15.13
2022-10-26T04:30:35.331Z,17.30
2022-10-26T04:33:04.730Z,18.20
2022-10-26T04:35:34.965Z,16.80
2022-10-26T04:38:05.906Z,16.83
2022-10-26T04:40:35.433Z,16.35
2022-10-26T04:43:03.764Z,15.38
2022-10-26T04:45:32.487Z,15.43
2022-10-26T04:48:10.257Z,16.08
2022-10-26T04:50:39.717Z,16.33
2022-10-26T04:53:09.635Z,15.80
2022-10-26T04:55:38.019Z,14.77
2022-10-26T04:58:08.136Z,16.55
2022-10-26T05:00:36.427Z,21.85
2022-10-26T05:03:08.043Z,16.77
2022-10-26T05:05:37.798Z,16.08
2022-10-26T05:08:06.768Z,16.20
2022-10-26T05:10:35.173Z,16.10
2022-10-26T05:13:03.515Z,16.65
2022-10-26T05:15:32.052Z,16.02
2022-10-26T05:18:03.519Z,16.45
2022-10-26T05:20:34.259Z,15.77
2022-10-26T05:25:35.118Z,15.25
2022-10-26T05:28:06.339Z,16.02
2022-10-26T05:30:35.301Z,17.63
2022-10-26T05:33:03.851Z,17.30
2022-10-26T05:35:32.933Z,16.08
2022-10-26T05:38:07.332Z,16.42
2022-10-26T05:40:36.022Z,16.88
2022-10-26T05:43:04.826Z,16.50
2022-10-26T05:45:33.091Z,18.23
2022-10-26T05:48:02.787Z,16.05
2022-10-26T05:50:31.552Z,15.55
2022-10-26T05:53:00.519Z,15.60
2022-10-26T05:55:31.039Z,16.48
2022-10-26T05:58:01.271Z,15.40
2022-10-26T06:00:33.297Z,14.82
2022-10-26T06:03:04.418Z,13.98
2022-10-26T06:05:45.398Z,14.20
2022-10-26T06:08:13.914Z,14.20
2022-10-26T06:10:42.389Z,13.63
2022-10-26T06:13:10.992Z,13.40
2022-10-26T06:15:48.692Z,14.88
2022-10-26T06:18:35.272Z,14.82
2022-10-26T06:21:22.567Z,13.95
2022-10-26T06:24:00.111Z,14.35
2022-10-26T06:27:15.763Z,13.60
2022-10-26T06:29:49.946Z,13.00
2022-10-26T06:32:18.461Z,14.05
2022-10-26T06:34:49.734Z,14.68
2022-10-26T06:37:18.632Z,14.05
2022-10-26T06:39:53.927Z,12.48
2022-10-26T06:42:23.566Z,12.82
2022-10-26T06:44:52.746Z,14.55
2022-10-26T06:47:31.904Z,12.02
2022-10-26T06:50:28.192Z,11.88
2022-10-26T06:53:11.468Z,12.02
2022-10-26T06:55:45.511Z,11.82
2022-10-26T06:58:20.977Z,11.75
2022-10-26T07:00:52.247Z,11.10
2022-10-26T07:03:20.933Z,10.68
2022-10-26T07:05:49.895Z,11.68
2022-10-26T07:08:18.679Z,11.75
2022-10-26T07:10:53.009Z,10.68
2022-10-26T07:13:21.447Z,10.20
2022-10-26T07:15:49.753Z,10.27
2022-10-26T07:18:18.340Z,10.02
2022-10-26T07:20:46.769Z,9.05
2022-10-26T07:23:15.983Z,9.45
2022-10-26T07:25:44.223Z,10.07
2022-10-26T07:28:12.947Z,9.23
2022-10-26T07:30:41.380Z,9.30
2022-10-26T07:33:12.444Z,9.60
2022-10-26T07:35:41.280Z,8.63
2022-10-26T07:38:09.881Z,8.95
2022-10-26T07:40:38.260Z,7.60
2022-10-26T07:43:06.749Z,8.23
2022-10-26T07:45:36.755Z,9.13
2022-10-26T07:48:05.186Z,8.63
2022-10-26T07:50:34.914Z,7.68
2022-10-26T07:53:03.345Z,9.53
2022-10-26T07:55:31.568Z,9.30
2022-10-26T07:58:00.190Z,9.60
2022-10-26T08:00:29.998Z,9.95
2022-10-26T08:02:58.306Z,8.65
2022-10-26T08:05:26.844Z,8.85
2022-10-26T08:07:55.216Z,9.20
2022-10-26T08:10:23.963Z,8.82
2022-10-26T08:12:53.246Z,8.50
2022-10-26T08:15:21.585Z,8.75
2022-10-26T08:17:50.177Z,8.02
2022-10-26T08:20:18.994Z,8.98
2022-10-26T08:22:47.772Z,8.93
2022-10-26T08:25:18.945Z,9.32
2022-10-26T08:27:50.129Z,8.85
2022-10-26T08:30:18.705Z,8.60
2022-10-26T08:32:47.335Z,8.35
2022-10-26T08:35:16.050Z,7.50
2022-10-26T08:37:44.331Z,8.15
2022-10-26T08:40:17.023Z,8.68
2022-10-26T08:42:50.456Z,8.40
2022-10-26T08:45:36.843Z,8.15
2022-10-26T08:48:13.783Z,8.18
2022-10-26T08:50:49.601Z,7.65
2022-10-26T08:53:53.480Z,7.60
2022-10-26T08:56:47.285Z,8.32
2022-10-26T08:59:43.629Z,8.10
2022-10-26T09:02:17.075Z,8.73
2022-10-26T09:04:45.693Z,7.57
2022-10-26T09:07:29.247Z,6.57
2022-10-26T09:10:14.906Z,6.80
2022-10-26T09:13:03.356Z,6.13
2022-10-26T09:16:05.640Z,5.47
2022-10-26T09:18:43.073Z,5.13
2022-10-26T09:21:27.465Z,6.15
2022-10-26T09:24:03.908Z,5.05
2022-10-26T09:26:35.734Z,5.70
2022-10-26T09:29:11.142Z,5.13
2022-10-26T09:31:43.429Z,5.03
2022-10-26T09:34:23.126Z,5.70
2022-10-26T09:36:55.658Z,4.97
2022-10-26T09:39:43.378Z,4.57
2022-10-26T09:42:22.703Z,4.60
2022-10-26T09:45:13.302Z,4.05
2022-10-26T09:47:49.869Z,4.47
2022-10-26T09:50:26.435Z,3.65
2022-10-26T09:52:54.753Z,3.65
2022-10-26T09:55:23.864Z,3.88
2022-10-26T09:57:56.189Z,3.22
2022-10-26T10:00:26.219Z,3.33
2022-10-26T10:02:58.882Z,2.85
2022-10-26T10:05:50.324Z,3.03
2022-10-26T10:08:22.100Z,3.10
2022-10-26T10:11:05.783Z,3.53
2022-10-26T10:13:36.999Z,3.08
2022-10-26T10:16:22.137Z,3.42
2022-10-26T10:18:58.277Z,3.00
2022-10-26T10:21:48.580Z,3.10
2022-10-26T10:24:33.876Z,2.90
2022-10-26T10:27:18.460Z,3.53
2022-10-26T10:29:48.064Z,3.00
2022-10-26T10:32:28.628Z,3.13
2022-10-26T10:34:58.999Z,3.17
2022-10-26T10:37:46.070Z,3.35
2022-10-26T10:40:20.771Z,3.00
2022-10-26T10:42:55.558Z,2.60
2022-10-26T10:45:26.752Z,2.85
2022-10-26T10:48:13.367Z,2.53
2022-10-26T10:51:13.065Z,2.00
2022-10-26T10:53:51.781Z,2.60
2022-10-26T10:56:48.970Z,2.28
2022-10-26T10:59:38.927Z,2.72
2022-10-26T11:02:13.616Z,2.58
2022-10-26T11:05:03.405Z,2.75
2022-10-26T11:07:45.011Z,2.53
2022-10-26T11:10:17.841Z,3.60
2022-10-26T11:12:58.767Z,2.85
2022-10-26T11:15:32.140Z,3.15
2022-10-26T11:18:11.605Z,2.72
2022-10-26T11:20:47.821Z,2.95
2022-10-26T11:24:11.475Z,2.42
2022-10-26T11:26:46.355Z,2.60
2022-10-26T11:29:26.128Z,2.90
2022-10-26T11:32:01.684Z,2.88
2022-10-26T11:34:38.053Z,3.22
2022-10-26T11:40:12.271Z,2.63
2022-10-26T11:42:49.274Z,3.00
2022-10-26T11:45:23.575Z,3.25
2022-10-26T11:47:59.735Z,2.83
2022-10-26T11:50:36.696Z,3.42
2022-10-26T11:53:14.895Z,2.70
2022-10-26T11:58:26.777Z,3.40
2022-10-26T12:00:57.991Z,2.80
2022-10-26T12:03:32.754Z,3.03
2022-10-26T12:06:01.453Z,2.42
2022-10-26T12:08:38.919Z,2.60
2022-10-26T12:11:22.313Z,2.10
2022-10-26T12:13:52.563Z,2.60
2022-10-26T12:16:43.214Z,2.58
2022-10-26T12:19:32.121Z,2.30
2022-10-26T12:22:01.027Z,2.72
2022-10-26T12:24:35.557Z,2.97
2022-10-26T12:27:06.459Z,3.13
2022-10-26T12:29:46.634Z,2.38
2022-10-26T12:32:33.613Z,2.33
2022-10-26T12:35:43.763Z,2.33
2022-10-26T12:38:24.258Z,2.55
2022-10-26T12:43:39.997Z,2.47
2022-10-26T12:46:14.776Z,2.00
2022-10-26T12:48:50.812Z,1.98
2022-10-26T12:51:22.514Z,2.60
2022-10-26T12:54:35.872Z,2.53
2022-10-26T12:57:29.141Z,2.72
2022-10-26T13:00:14.876Z,2.05
2022-10-26T13:03:01.096Z,2.78
2022-10-26T13:06:04.114Z,3.22
2022-10-26T13:08:42.202Z,2.30
2022-10-26T13:11:21.276Z,2.08
2022-10-26T13:13:55.840Z,2.30
2022-10-26T13:16:27.083Z,2.50
2022-10-26T13:18:56.749Z,2.42
2022-10-26T13:21:26.216Z,2.58
2022-10-26T13:23:54.900Z,2.83
2022-10-26T13:26:28.601Z,2.58
2022-10-26T13:29:00.391Z,2.45
2022-10-26T13:31:28.983Z,2.90
2022-10-26T13:34:11.028Z,2.42
2022-10-26T13:37:13.404Z,2.28
2022-10-26T13:39:47.376Z,2.42
2022-10-26T13:42:21.859Z,2.47
2022-10-26T13:44:59.755Z,2.55
2022-10-26T13:47:49.776Z,2.58
2022-10-26T13:50:24.772Z,2.70
2022-10-26T13:53:05.779Z,3.10
2022-10-26T13:55:45.462Z,2.22
2022-10-26T13:58:35.031Z,2.25
2022-10-26T14:01:09.562Z,3.40
2022-10-26T14:03:39.012Z,3.17
2022-10-26T14:06:32.608Z,2.90
2022-10-26T14:09:05.072Z,2.47
2022-10-26T14:11:43.052Z,2.60
2022-10-26T14:14:18.625Z,2.78
2022-10-26T14:16:50.510Z,3.25
2022-10-26T14:19:29.125Z,3.08
2022-10-26T14:21:58.535Z,2.80
2022-10-26T14:24:47.004Z,2.70
2022-10-26T14:27:22.165Z,2.75
2022-10-26T14:32:41.213Z,3.30
2022-10-26T14:35:16.366Z,3.20
2022-10-26T14:37:47.253Z,2.97
2022-10-26T14:40:21.080Z,3.00
2022-10-26T14:42:52.881Z,3.28
2022-10-26T14:45:49.312Z,3.00
2022-10-26T14:48:21.336Z,3.42
2022-10-26T14:51:06.046Z,4.10
2022-10-26T14:53:40.182Z,3.30
2022-10-26T14:56:28.866Z,4.32
2022-10-26T14:58:58.770Z,3.63
2022-10-26T15:01:33.179Z,4.13
2022-10-26T15:04:06.777Z,3.90
2022-10-26T15:06:45.516Z,4.10
2022-10-26T15:09:33.036Z,4.38
2022-10-26T15:12:04.275Z,4.50
2022-10-26T15:14:34.125Z,4.18
2022-10-26T15:17:04.018Z,5.07
2022-10-26T15:19:40.229Z,3.90
2022-10-26T15:22:22.945Z,3.92
2022-10-26T15:24:58.064Z,4.53
2022-10-26T15:27:29.549Z,5.05
2022-10-26T15:30:24.552Z,4.43
2022-10-26T15:32:55.242Z,4.50
2022-10-26T15:35:32.069Z,4.50
2022-10-26T15:38:01.316Z,5.00
2022-10-26T15:40:31.595Z,5.10
2022-10-26T15:43:00.975Z,4.75
2022-10-26T15:45:36.145Z,5.32
2022-10-26T15:48:21.495Z,4.95
2022-10-26T15:50:50.453Z,5.30
2022-10-26T15:53:27.591Z,5.53
2022-10-26T15:55:59.415Z,4.90
2022-10-26T15:58:31.525Z,5.15
2022-10-26T16:01:00.041Z,6.65
2022-10-26T16:03:28.943Z,5.57
2022-10-26T16:06:01.043Z,5.32
2022-10-26T16:08:32.376Z,5.32
2022-10-26T16:11:01.589Z,5.53
2022-10-26T16:13:30.666Z,5.55
2022-10-26T16:15:58.934Z,5.43
2022-10-26T16:18:27.345Z,5.30
2022-10-26T16:20:55.918Z,5.55
2022-10-26T16:23:24.172Z,4.95
2022-10-26T16:25:52.450Z,5.45
2022-10-26T16:28:21.464Z,5.57
2022-10-26T16:30:49.730Z,5.80
2022-10-26T16:33:19.464Z,5.70
2022-10-26T16:35:57.144Z,5.70
2022-10-26T16:38:26.730Z,6.03
2022-10-26T16:41:21.109Z,5.82
2022-10-26T16:43:49.908Z,5.60
2022-10-26T16:46:20.612Z,5.82
2022-10-26T16:51:23.491Z,5.68
2022-10-26T16:53:53.813Z,6.20
2022-10-26T16:56:25.204Z,6.60
2022-10-26T16:58:53.963Z,6.22
2022-10-26T17:01:22.733Z,6.60
2022-10-26T17:03:53.049Z,6.68
2022-10-26T17:06:21.612Z,6.30
2022-10-26T17:08:50.102Z,6.18
2022-10-26T17:11:20.507Z,6.13
2022-10-26T17:13:55.730Z,7.15
2022-10-26T17:16:24.948Z,6.13
2022-10-26T17:18:54.286Z,6.00
2022-10-26T17:21:37.315Z,5.72
2022-10-26T17:24:06.916Z,6.07
2022-10-26T17:26:35.684Z,5.63
2022-10-26T17:29:04.275Z,5.38
2022-10-26T17:31:33.266Z,5.32
2022-10-26T17:34:02.286Z,5.93
2022-10-26T17:36:31.670Z,5.70
2022-10-26T17:39:00.982Z,6.53
2022-10-26T17:41:29.449Z,6.78
2022-10-26T17:43:57.711Z,7.60
2022-10-26T17:46:26.864Z,5.70
2022-10-26T17:48:59.847Z,5.65
2022-10-26T17:51:29.909Z,6.00
2022-10-26T17:53:59.344Z,5.07
2022-10-26T17:56:30.686Z,5.40
2022-10-26T17:59:12.394Z,5.63
2022-10-26T18:01:41.226Z,6.00
2022-10-26T18:04:09.584Z,6.15
2022-10-26T18:06:37.826Z,5.50
2022-10-26T18:09:06.405Z,6.13
2022-10-26T18:11:34.712Z,5.90
2022-10-26T18:14:04.486Z,6.00
2022-10-26T18:16:34.869Z,5.80
2022-10-26T18:19:04.740Z,5.80
2022-10-26T18:21:37.489Z,5.57
2022-10-26T18:24:07.400Z,6.45
2022-10-26T18:26:36.251Z,6.40
2022-10-26T18:29:05.455Z,6.65
2022-10-26T18:31:37.153Z,6.18
2022-10-26T18:34:07.001Z,6.30
2022-10-26T18:39:07.337Z,5.68
2022-10-26T18:41:35.641Z,6.20
2022-10-26T18:44:04.227Z,6.13
2022-10-26T18:46:39.357Z,5.90
2022-10-26T18:49:09.480Z,6.43
2022-10-26T18:51:37.816Z,6.45
2022-10-26T18:54:06.135Z,5.20
2022-10-26T18:56:34.619Z,5.78
2022-10-26T18:59:03.017Z,6.25
2022-10-26T19:01:34.505Z,5.68
2022-10-26T19:04:07.490Z,5.60
2022-10-26T19:06:49.545Z,6.50
2022-10-26T19:09:19.198Z,7.07
2022-10-26T19:11:47.713Z,6.35
2022-10-26T19:14:16.068Z,6.32
2022-10-26T19:16:46.358Z,6.50
2022-10-26T19:19:17.014Z,7.15
2022-10-26T19:21:47.093Z,7.43
2022-10-26T19:24:19.362Z,6.55
2022-10-26T19:26:50.335Z,8.07
2022-10-26T19:29:19.218Z,7.38
2022-10-26T19:31:52.019Z,7.90
2022-10-26T19:34:20.607Z,7.75
2022-10-26T19:36:49.085Z,7.40
2022-10-26T19:39:18.113Z,8.15
2022-10-26T19:41:46.799Z,7.97
2022-10-26T19:44:20.706Z,7.97
2022-10-26T19:46:50.810Z,8.10
2022-10-26T19:49:20.894Z,8.52
2022-10-26T19:51:49.390Z,7.85
2022-10-26T19:54:17.894Z,8.65
2022-10-26T19:56:46.652Z,8.07
2022-10-26T19:59:15.114Z,8.20
2022-10-26T20:01:43.531Z,8.60
2022-10-26T20:04:12.047Z,8.90
2022-10-26T20:06:43.947Z,8.88
2022-10-26T20:09:13.682Z,7.75
2022-10-26T20:11:43.130Z,8.13
2022-10-26T20:14:13.725Z,10.38
2022-10-26T20:16:42.258Z,8.23
2022-10-26T20:19:11.200Z,9.30
2022-10-26T20:21:39.612Z,9.68
2022-10-26T20:24:12.318Z,9.07
2022-10-26T20:26:41.241Z,8.52
2022-10-26T20:29:10.114Z,9.43
2022-10-26T20:31:40.594Z,10.48
2022-10-26T20:34:09.114Z,9.75
2022-10-26T20:36:37.848Z,9.30
2022-10-26T20:39:06.417Z,9.50
2022-10-26T20:41:41.571Z,9.60
2022-10-26T20:44:18.890Z,9.32
2022-10-26T20:46:47.690Z,9.85
2022-10-26T20:49:16.741Z,9.73
2022-10-26T20:52:20.065Z,10.93
2022-10-26T20:55:04.096Z,9.93
2022-10-26T20:57:35.200Z,11.35
2022-10-26T21:00:10.926Z,10.45
2022-10-26T21:02:39.792Z,10.18
2022-10-26T21:05:08.235Z,10.40
2022-10-26T21:07:36.535Z,10.27
2022-10-26T21:10:06.222Z,10.73
2022-10-26T21:12:34.543Z,10.45
2022-10-26T21:15:02.903Z,11.18
2022-10-26T21:17:34.459Z,10.40
2022-10-26T21:20:03.096Z,9.80
2022-10-26T21:22:31.392Z,11.18
2022-10-26T21:24:59.681Z,10.35
2022-10-26T21:27:30.314Z,11.07
2022-10-26T21:32:27.853Z,11.43
2022-10-26T21:34:56.194Z,11.65
2022-10-26T21:37:27.728Z,11.40
2022-10-26T21:39:56.854Z,10.82
2022-10-26T21:42:25.141Z,10.07
2022-10-26T21:44:53.365Z,10.90
2022-10-26T21:47:22.083Z,11.18
2022-10-26T21:49:50.371Z,10.90
2022-10-26T21:52:18.703Z,11.18
2022-10-26T21:54:47.050Z,11.98
2022-10-26T21:57:16.525Z,11.50
2022-10-26T21:59:45.808Z,11.60
2022-10-26T22:02:14.133Z,11.27
2022-10-26T22:04:42.468Z,11.07
2022-10-26T22:07:11.068Z,10.82
2022-10-26T22:09:49.497Z,10.43
2022-10-26T22:12:28.588Z,9.43
2022-10-26T22:14:56.816Z,11.57
2022-10-26T22:17:25.173Z,9.88
2022-10-26T22:19:53.415Z,10.65
2022-10-26T22:22:21.941Z,10.18
2022-10-26T22:24:51.338Z,10.40
2022-10-26T22:27:20.248Z,9.65
2022-10-26T22:29:49.748Z,10.50
2022-10-26T22:32:18.054Z,9.30
2022-10-26T22:35:00.256Z,9.63
2022-10-26T22:37:39.011Z,8.85
2022-10-26T22:40:08.212Z,9.70
2022-10-26T22:42:36.471Z,8.40
2022-10-26T22:45:05.458Z,9.18
2022-10-26T22:47:34.965Z,8.48
2022-10-26T22:50:03.602Z,9.73
2022-10-26T22:52:31.863Z,8.98
2022-10-26T22:55:00.434Z,8.77
2022-10-26T22:57:28.986Z,8.65
2022-10-26T22:59:58.278Z,7.95
2022-10-26T23:02:26.687Z,8.85
2022-10-26T23:04:55.111Z,8.02
2022-10-26T23:07:26.121Z,8.18
2022-10-26T23:09:54.524Z,7.72
2022-10-26T23:12:22.969Z,7.57
2022-10-26T23:14:51.229Z,7.53
2022-10-26T23:17:19.481Z,7.50
2022-10-26T23:19:48.218Z,7.95
2022-10-26T23:22:16.531Z,7.13
2022-10-26T23:24:44.857Z,7.38
2022-10-26T23:27:13.088Z,7.30
2022-10-26T23:29:41.453Z,6.95
2022-10-26T23:32:09.878Z,7.10
2022-10-26T23:34:38.489Z,6.63
2022-10-26T23:37:06.727Z,6.68
2022-10-26T23:39:35.118Z,8.27
2022-10-26T23:42:03.699Z,6.90
2022-10-26T23:44:32.373Z,7.25
2022-10-26T23:47:00.628Z,6.80
2022-10-26T23:49:28.873Z,6.63
2022-10-26T23:51:57.367Z,6.93
2022-10-26T23:54:26.760Z,6.82
2022-10-26T23:56:55.073Z,6.65
2022-10-26T23:59:23.357Z,6.97
